createdAt,value
2018-12-27T00:01:12.399Z,34.64
2018-12-27T00:07:07.399Z,27.03
2018-12-27T00:13:02.428Z,34.02
2018-12-27T00:18:57.405Z,29.58
2018-12-27T00:24:52.416Z,27.93
2018-12-27T00:30:47.425Z,25.66
2018-12-27T00:36:42.439Z,23.45
2018-12-27T00:42:37.410Z,33.59
2018-12-27T00:48:32.454Z,31.58
2018-12-27T00:54:27.467Z,31.42
2018-12-27T01:00:22.415Z,26.95
2018-12-27T01:06:17.430Z,25.44
2018-12-27T01:12:12.444Z,33.19
2018-12-27T01:18:07.456Z,29.01
2018-12-27T01:24:02.450Z,26.06
2018-12-27T01:29:57.450Z,19.56
2018-12-27T01:35:52.462Z,20.88
2018-12-27T01:41:47.473Z,18.8
2018-12-27T01:47:42.453Z,13.95
2018-12-27T01:53:37.546Z,19.4
2018-12-27T01:59:32.461Z,18.69
2018-12-27T02:05:27.526Z,20.96
2018-12-27T02:11:22.542Z,17.72
2018-12-27T02:17:17.472Z,16.23
2018-12-27T02:23:12.454Z,18.45
2018-12-27T02:29:07.480Z,21.93
2018-12-27T02:35:02.472Z,20.67
2018-12-27T02:40:57.498Z,19.47
2018-12-27T02:46:52.490Z,18.71
2018-12-27T02:52:47.491Z,26.35
2018-12-27T02:58:42.491Z,22.48
2018-12-27T03:04:37.511Z,24.47
2018-12-27T03:10:32.478Z,24.79
2018-12-27T03:16:27.555Z,17.28
2018-12-27T03:22:22.491Z,21.18
2018-12-27T03:28:17.507Z,19.64
2018-12-27T03:34:12.553Z,17.94
2018-12-27T03:40:07.530Z,21.1
2018-12-27T03:46:02.523Z,17.29
2018-12-27T03:51:57.517Z,18.9
2018-12-27T03:57:52.529Z,22.24
2018-12-27T04:03:47.536Z,17.46
2018-12-27T04:09:42.527Z,16.84
2018-12-27T04:15:37.520Z,18.74
2018-12-27T04:21:32.528Z,19.83
2018-12-27T04:27:27.524Z,19.89
2018-12-27T04:33:22.572Z,18.72
2018-12-27T04:39:17.560Z,23.43
2018-12-27T04:45:12.551Z,33.18
2018-12-27T04:51:07.686Z,41.19
2018-12-27T04:57:02.566Z,44.76
2018-12-27T05:02:57.560Z,43.22
2018-12-27T05:08:52.609Z,39.43
2018-12-27T05:14:47.560Z,40.15
2018-12-27T05:20:42.594Z,20.18
2018-12-27T05:26:37.584Z,23.99
2018-12-27T05:32:32.561Z,21.96
2018-12-27T05:38:27.554Z,18.18
2018-12-27T05:44:22.562Z,19
2018-12-27T05:50:17.623Z,21.85
2018-12-27T05:56:12.568Z,15.99
2018-12-27T06:02:07.619Z,28.27
2018-12-27T06:08:02.587Z,24.26
2018-12-27T06:13:57.578Z,29.37
2018-12-27T06:19:52.596Z,30.97
2018-12-27T06:25:47.616Z,38.63
2018-12-27T06:31:42.599Z,37.67
2018-12-27T06:37:37.585Z,31.67
2018-12-27T06:43:32.607Z,26.34
2018-12-27T06:49:27.629Z,28.9
2018-12-27T06:55:22.600Z,20.78
2018-12-27T07:01:17.606Z,18.55
2018-12-27T07:07:12.607Z,29.31
2018-12-27T07:13:07.597Z,38.38
2018-12-27T07:19:02.692Z,39.83
2018-12-27T07:24:57.634Z,39.34
2018-12-27T07:30:52.633Z,42.81
2018-12-27T07:36:47.702Z,45.38
2018-12-27T07:42:42.623Z,41.11
2018-12-27T07:48:37.649Z,37.73
2018-12-27T07:54:32.636Z,35.69
2018-12-27T08:00:27.647Z,43.03
2018-12-27T08:06:22.654Z,39.94
2018-12-27T08:12:17.686Z,44.45
2018-12-27T08:18:12.653Z,41.68
2018-12-27T08:24:07.650Z,45.21
2018-12-27T08:30:02.684Z,56.43
2018-12-27T08:35:57.686Z,49.97
2018-12-27T08:41:52.736Z,41.81
2018-12-27T08:47:47.734Z,44.92
2018-12-27T08:53:42.652Z,50.89
2018-12-27T08:59:37.691Z,71.89
2018-12-27T09:05:32.688Z,53.04
2018-12-27T09:11:27.679Z,71.07
2018-12-27T09:17:22.692Z,54.65
2018-12-27T09:23:17.663Z,55.28
2018-12-27T09:29:12.694Z,59.85
2018-12-27T09:35:07.731Z,63.93
2018-12-27T09:41:02.694Z,72.37
2018-12-27T09:46:57.696Z,63.49
2018-12-27T09:52:52.703Z,72.01
2018-12-27T09:58:47.700Z,61.9
2018-12-27T10:04:42.701Z,63.03
2018-12-27T10:10:37.720Z,63.96
2018-12-27T10:16:32.729Z,68.02
2018-12-27T10:22:27.737Z,99.46
2018-12-27T10:28:22.737Z,62.05
2018-12-27T10:34:17.738Z,66.43
2018-12-27T10:40:12.737Z,66.56
2018-12-27T10:46:07.732Z,25.11
2018-12-27T10:52:02.746Z,374.13
2018-12-27T10:57:57.761Z,175.42
2018-12-27T11:03:52.781Z,127.77
2018-12-27T11:09:47.782Z,112.25
2018-12-27T11:15:42.732Z,116.8
2018-12-27T11:21:37.766Z,98.86
2018-12-27T11:27:32.770Z,92.8
2018-12-27T11:33:27.759Z,92.07
2018-12-27T11:39:22.786Z,84.82
2018-12-27T11:45:17.781Z,88.35
2018-12-27T11:51:12.756Z,89.51
2018-12-27T11:57:07.761Z,68.21
2018-12-27T12:03:02.761Z,84.16
2018-12-27T12:08:57.768Z,80.17
2018-12-27T12:14:52.785Z,76.25
2018-12-27T12:20:47.816Z,55.17
2018-12-27T12:26:42.805Z,54.61
2018-12-27T12:32:37.783Z,58.86
2018-12-27T12:38:32.779Z,64.81
2018-12-27T12:44:27.813Z,56.97
2018-12-27T12:50:22.794Z,75.31
2018-12-27T12:56:17.806Z,73.61
2018-12-27T13:02:12.821Z,73.1
2018-12-27T13:08:07.817Z,72.58
2018-12-27T13:14:02.840Z,74.43
2018-12-27T13:19:57.833Z,63.42
2018-12-27T13:25:52.806Z,62.17
2018-12-27T13:31:47.829Z,41.75
2018-12-27T13:37:42.846Z,43.26
2018-12-27T13:49:46.824Z,30.64
2018-12-27T13:55:41.824Z,18.42
2018-12-27T14:01:36.857Z,19.35
2018-12-27T14:07:31.833Z,16.15
2018-12-27T14:13:26.826Z,17.72
2018-12-27T14:19:21.846Z,14.92
2018-12-27T14:25:16.857Z,20.35
2018-12-27T14:31:11.840Z,17.84
2018-12-27T14:37:06.854Z,16.8
2018-12-27T14:43:01.873Z,20.81
2018-12-27T14:48:56.879Z,19.5
2018-12-27T14:54:51.842Z,27.42
2018-12-27T15:00:46.880Z,28.96
2018-12-27T15:06:46.991Z,27.44
2018-12-27T15:12:36.868Z,25.69
2018-12-27T15:18:31.874Z,23.55
2018-12-27T15:24:26.849Z,32.16
2018-12-27T15:30:21.866Z,24.15
2018-12-27T15:36:16.867Z,22.85
2018-12-27T15:42:11.887Z,27.06
2018-12-27T15:48:06.869Z,22.43
2018-12-27T15:54:01.874Z,25.9
2018-12-27T15:59:56.890Z,21.43
2018-12-27T16:05:51.883Z,19.9
2018-12-27T16:11:46.893Z,21.75
2018-12-27T16:17:41.883Z,20.96
2018-12-27T16:23:36.910Z,24.87
2018-12-27T16:29:31.904Z,23.85
2018-12-27T16:35:26.920Z,24.76
2018-12-27T16:41:21.882Z,23.13
2018-12-27T16:47:16.957Z,25.35
2018-12-27T16:53:11.932Z,43.77
2018-12-27T16:59:06.953Z,30.67
2018-12-27T17:05:01.963Z,28.59
2018-12-27T17:10:56.932Z,31.05
2018-12-27T17:16:51.947Z,36.53
2018-12-27T17:22:46.949Z,48.02
2018-12-27T17:28:41.997Z,54.93
2018-12-27T17:34:36.940Z,56.41
2018-12-27T17:40:31.982Z,43.94
2018-12-27T17:46:26.947Z,54.81
2018-12-27T17:52:21.951Z,58.42
2018-12-27T17:58:16.957Z,51.71
2018-12-27T18:04:11.966Z,45.98
2018-12-27T18:10:07.005Z,52.21
2018-12-27T18:16:01.969Z,38.62
2018-12-27T18:21:56.974Z,26.43
2018-12-27T18:27:51.984Z,14.75
2018-12-27T18:33:46.976Z,11.83
2018-12-27T18:39:42.000Z,15.91
2018-12-27T18:45:36.980Z,14.29
2018-12-27T18:51:32.008Z,13.45
2018-12-27T18:57:26.983Z,80.86
2018-12-27T19:03:21.990Z,45.17
2018-12-27T19:09:17.000Z,43.71
2018-12-27T19:15:11.990Z,37.83
2018-12-27T19:21:07.009Z,36.23
2018-12-27T19:27:01.984Z,33.09
2018-12-27T19:32:57.014Z,29.33
2018-12-27T19:38:52.018Z,24.37
2018-12-27T19:44:47.042Z,32.56
2018-12-27T19:50:42.010Z,25.66
2018-12-27T19:56:37.045Z,15.78
2018-12-27T20:02:32.030Z,10.85
2018-12-27T20:08:27.082Z,47.92
2018-12-27T20:14:22.068Z,33.95
2018-12-27T20:20:17.029Z,36.96
2018-12-27T20:26:12.041Z,32.49
2018-12-27T20:32:07.047Z,40.39
2018-12-27T20:38:06.562Z,45.29
2018-12-27T20:43:57.081Z,53.27
2018-12-27T20:49:52.052Z,46.22
2018-12-27T20:55:47.064Z,49.23
2018-12-27T21:01:42.061Z,56.31
2018-12-27T21:07:37.130Z,50.52
2018-12-27T21:13:32.053Z,44.9
2018-12-27T21:19:27.049Z,40.51
2018-12-27T21:25:22.128Z,35.66
2018-12-27T21:31:17.072Z,31.53
2018-12-27T21:37:12.064Z,27.23
2018-12-27T21:43:07.091Z,24.15
2018-12-27T21:49:02.128Z,20.8
2018-12-27T21:54:57.110Z,22.81
2018-12-27T22:00:52.094Z,15.91
2018-12-27T22:06:47.099Z,16.64
2018-12-27T22:12:42.116Z,21.71
2018-12-27T22:18:37.107Z,18.79
2018-12-27T22:24:32.129Z,31.31
2018-12-27T22:30:27.107Z,29.25
2018-12-27T22:36:22.162Z,41.41
2018-12-27T22:42:17.146Z,51.53
2018-12-27T22:48:12.133Z,52.06
2018-12-27T22:54:07.139Z,39.44
2018-12-27T23:00:02.120Z,44.23
2018-12-27T23:05:57.111Z,53.33
2018-12-27T23:11:52.137Z,42.84
2018-12-27T23:17:47.145Z,42.5
2018-12-27T23:23:42.138Z,39.41
2018-12-27T23:29:37.136Z,53.72
2018-12-27T23:35:32.150Z,47
2018-12-27T23:41:27.142Z,43.48
2018-12-27T23:47:22.160Z,38.38
2018-12-27T23:53:17.142Z,39.07
2018-12-27T23:59:12.167Z,35.12
